createdAt,value
2022-10-19T00:02:09.537Z,16.85
2022-10-19T00:04:39.327Z,28.27
2022-10-19T00:07:05.789Z,37.67
2022-10-19T00:09:32.266Z,33.17
2022-10-19T00:11:58.745Z,56.83
2022-10-19T00:14:25.561Z,31.88
2022-10-19T00:16:53.002Z,26.33
2022-10-19T00:19:21.423Z,27.60
2022-10-19T00:24:14.377Z,21.30
2022-10-19T00:26:40.936Z,58.40
2022-10-19T00:29:10.573Z,35.53
2022-10-19T00:31:37.078Z,45.95
2022-10-19T00:34:03.592Z,23.95
2022-10-19T00:36:34.474Z,27.38
2022-10-19T00:39:01.350Z,21.15
2022-10-19T00:41:30.646Z,17.20
2022-10-19T00:44:01.766Z,35.70
2022-10-19T00:46:29.460Z,20.83
2022-10-19T00:49:10.009Z,20.50
2022-10-19T00:51:39.454Z,17.20
2022-10-19T00:56:32.698Z,14.43
2022-10-19T00:58:59.225Z,13.07
2022-10-19T01:01:27.221Z,12.88
2022-10-19T01:03:53.766Z,12.23
2022-10-19T01:06:20.541Z,12.27
2022-10-19T01:08:47.017Z,11.32
2022-10-19T01:11:39.269Z,11.55
2022-10-19T01:14:28.679Z,13.35
2022-10-19T01:17:11.261Z,13.88
2022-10-19T01:19:56.252Z,13.02
2022-10-19T01:22:41.462Z,14.05
2022-10-19T01:25:31.051Z,10.68
2022-10-19T01:28:00.241Z,14.65
2022-10-19T01:30:45.289Z,12.05
2022-10-19T01:33:18.960Z,12.48
2022-10-19T01:35:53.130Z,13.88
2022-10-19T01:38:28.007Z,11.75
2022-10-19T01:40:58.017Z,12.68
2022-10-19T01:43:30.338Z,14.60
2022-10-19T01:46:05.914Z,11.77
2022-10-19T01:48:34.937Z,13.27
2022-10-19T01:51:20.942Z,12.20
2022-10-19T01:53:49.263Z,12.45
2022-10-19T01:58:43.898Z,14.95
2022-10-19T02:03:43.194Z,13.25
2022-10-19T02:06:11.510Z,20.00
2022-10-19T02:08:40.710Z,20.25
2022-10-19T02:11:07.223Z,25.98
2022-10-19T02:13:34.129Z,36.92
2022-10-19T02:16:03.435Z,25.75
2022-10-19T02:18:33.092Z,17.10
2022-10-19T02:21:01.151Z,28.50
2022-10-19T02:23:28.068Z,22.05
2022-10-19T02:25:55.231Z,14.60
2022-10-19T02:28:27.527Z,20.95
2022-10-19T02:30:54.193Z,21.73
2022-10-19T02:33:20.735Z,24.67
2022-10-19T02:35:48.080Z,21.92
2022-10-19T02:38:16.838Z,32.88
2022-10-19T02:40:48.372Z,15.52
2022-10-19T02:43:17.794Z,51.60
2022-10-19T02:45:49.062Z,21.00
2022-10-19T02:48:19.464Z,17.85
2022-10-19T02:50:47.748Z,22.75
2022-10-19T02:53:14.973Z,19.38
2022-10-19T02:55:41.929Z,24.70
2022-10-19T02:58:08.542Z,49.03
2022-10-19T03:00:35.191Z,22.83
2022-10-19T03:03:02.959Z,21.00
2022-10-19T03:05:29.957Z,23.65
2022-10-19T03:07:56.441Z,16.75
2022-10-19T03:10:23.045Z,40.70
2022-10-19T03:12:49.488Z,31.27
2022-10-19T03:15:16.681Z,21.70
2022-10-19T03:17:43.426Z,26.92
2022-10-19T03:20:10.416Z,17.58
2022-10-19T03:22:36.869Z,19.33
2022-10-19T03:25:03.546Z,26.83
2022-10-19T03:27:30.017Z,20.38
2022-10-19T03:29:56.554Z,20.05
2022-10-19T03:32:23.014Z,17.40
2022-10-19T03:34:49.504Z,18.75
2022-10-19T03:37:16.029Z,18.02
2022-10-19T03:39:42.510Z,22.67
2022-10-19T03:42:08.981Z,18.83
2022-10-19T03:44:35.406Z,19.83
2022-10-19T03:47:01.892Z,16.13
2022-10-19T03:49:28.401Z,20.08
2022-10-19T03:51:54.994Z,31.25
2022-10-19T03:54:23.716Z,15.00
2022-10-19T03:56:53.712Z,16.17
2022-10-19T03:59:20.163Z,21.50
2022-10-19T04:01:47.550Z,20.48
2022-10-19T04:04:15.901Z,20.42
2022-10-19T04:09:09.407Z,21.80
2022-10-19T04:11:36.021Z,22.60
2022-10-19T04:14:02.594Z,18.63
2022-10-19T04:16:30.655Z,23.20
2022-10-19T04:18:57.581Z,15.95
2022-10-19T04:21:24.072Z,23.30
2022-10-19T04:23:54.551Z,18.38
2022-10-19T04:26:21.086Z,20.25
2022-10-19T04:28:47.550Z,15.00
2022-10-19T04:31:14.080Z,17.42
2022-10-19T04:33:40.978Z,19.90
2022-10-19T04:36:08.569Z,20.30
2022-10-19T04:38:35.719Z,39.63
2022-10-19T04:41:03.424Z,27.75
2022-10-19T04:43:30.106Z,22.92
2022-10-19T04:45:56.664Z,21.38
2022-10-19T04:48:23.162Z,27.23
2022-10-19T04:50:49.658Z,22.65
2022-10-19T04:53:19.725Z,25.58
2022-10-19T04:55:46.245Z,55.22
2022-10-19T04:58:12.750Z,24.45
2022-10-19T05:00:39.648Z,23.65
2022-10-19T05:03:06.253Z,23.13
2022-10-19T05:05:33.343Z,28.33
2022-10-19T05:08:02.218Z,28.10
2022-10-19T05:10:28.858Z,33.55
2022-10-19T05:12:55.487Z,24.05
2022-10-19T05:15:21.998Z,96.38
2022-10-19T05:17:48.537Z,27.27
2022-10-19T05:20:15.069Z,25.40
2022-10-19T05:22:41.557Z,21.45
2022-10-19T05:25:08.305Z,36.67
2022-10-19T05:27:35.030Z,29.63
2022-10-19T05:30:01.721Z,20.75
2022-10-19T05:32:28.394Z,17.05
2022-10-19T05:34:55.038Z,21.65
2022-10-19T05:37:21.922Z,16.15
2022-10-19T05:39:48.446Z,23.60
2022-10-19T05:42:14.955Z,20.65
2022-10-19T05:44:41.597Z,41.45
2022-10-19T05:47:08.198Z,20.60
2022-10-19T05:49:34.742Z,16.17
2022-10-19T05:52:01.227Z,22.40
2022-10-19T05:54:28.601Z,19.00
2022-10-19T05:56:55.595Z,18.77
2022-10-19T05:59:22.354Z,17.63
2022-10-19T06:01:48.850Z,13.88
2022-10-19T06:06:46.856Z,16.50
2022-10-19T06:09:13.515Z,26.08
2022-10-19T06:11:41.213Z,20.02
2022-10-19T06:14:10.935Z,16.25
2022-10-19T06:16:37.598Z,13.95
2022-10-19T06:19:04.679Z,16.45
2022-10-19T06:21:31.865Z,12.88
2022-10-19T06:23:59.990Z,12.13
2022-10-19T06:26:27.304Z,14.88
2022-10-19T06:29:00.113Z,11.88
2022-10-19T06:31:30.786Z,10.93
2022-10-19T06:33:57.343Z,7.35
2022-10-19T06:36:25.105Z,8.85
2022-10-19T06:38:53.174Z,8.68
2022-10-19T06:41:19.952Z,10.15
2022-10-19T06:43:53.010Z,8.15
2022-10-19T06:46:23.328Z,8.70
2022-10-19T06:48:57.488Z,8.40
2022-10-19T06:51:25.429Z,7.20
2022-10-19T06:53:56.490Z,8.75
2022-10-19T06:56:24.708Z,10.10
2022-10-19T06:58:51.401Z,9.30
2022-10-19T07:01:18.360Z,8.80
2022-10-19T07:03:44.931Z,8.23
2022-10-19T07:06:12.390Z,11.45
2022-10-19T07:08:39.630Z,8.93
2022-10-19T07:11:07.667Z,10.23
2022-10-19T07:13:34.631Z,7.85
2022-10-19T07:16:06.605Z,7.47
2022-10-19T07:18:36.637Z,7.93
2022-10-19T07:21:04.135Z,9.48
2022-10-19T07:23:31.724Z,8.67
2022-10-19T07:26:02.178Z,11.47
2022-10-19T07:28:29.409Z,7.07
2022-10-19T07:30:56.054Z,7.32
2022-10-19T07:33:22.881Z,10.15
2022-10-19T07:35:49.385Z,7.97
2022-10-19T07:38:15.870Z,6.60
2022-10-19T07:40:44.925Z,7.28
2022-10-19T07:43:13.878Z,9.05
2022-10-19T07:45:40.383Z,7.15
2022-10-19T07:48:06.899Z,5.97
2022-10-19T07:50:33.447Z,6.25
2022-10-19T07:52:59.985Z,6.25
2022-10-19T07:55:26.514Z,6.20
2022-10-19T07:57:53.034Z,6.78
2022-10-19T08:00:19.561Z,7.97
2022-10-19T08:02:59.860Z,7.03
2022-10-19T08:05:33.095Z,9.25
2022-10-19T08:07:59.553Z,6.95
2022-10-19T08:10:26.042Z,6.82
2022-10-19T08:12:52.481Z,7.72
2022-10-19T08:15:18.953Z,7.07
2022-10-19T08:17:45.441Z,8.23
2022-10-19T08:20:12.012Z,7.55
2022-10-19T08:22:38.477Z,8.00
2022-10-19T08:25:05.149Z,8.82
2022-10-19T08:27:31.667Z,6.40
2022-10-19T08:29:58.165Z,8.32
2022-10-19T08:32:24.649Z,8.60
2022-10-19T08:34:51.110Z,7.95
2022-10-19T08:37:26.374Z,8.80
2022-10-19T08:40:04.876Z,10.30
2022-10-19T08:42:51.654Z,9.88
2022-10-19T08:45:32.787Z,9.30
2022-10-19T08:47:59.486Z,12.07
2022-10-19T08:50:32.218Z,14.00
2022-10-19T08:53:06.393Z,10.43
2022-10-19T08:55:47.063Z,10.80
2022-10-19T08:58:21.071Z,12.60
2022-10-19T09:00:55.442Z,9.73
2022-10-19T09:03:54.481Z,10.50
2022-10-19T09:06:26.165Z,11.68
2022-10-19T09:08:53.961Z,12.57
2022-10-19T09:11:25.908Z,10.98
2022-10-19T09:14:05.091Z,11.25
2022-10-19T09:16:32.982Z,12.75
2022-10-19T09:18:59.485Z,10.98
2022-10-19T09:21:37.984Z,8.73
2022-10-19T09:24:36.709Z,10.02
2022-10-19T09:27:03.858Z,7.82
2022-10-19T09:29:45.156Z,9.35
2022-10-19T09:32:13.761Z,7.05
2022-10-19T09:34:46.334Z,7.28
2022-10-19T09:37:21.777Z,7.22
2022-10-19T09:39:54.081Z,10.43
2022-10-19T09:42:23.740Z,9.02
2022-10-19T09:44:50.701Z,7.65
2022-10-19T09:47:23.670Z,8.05
2022-10-19T09:49:50.223Z,8.50
2022-10-19T09:52:22.737Z,7.47
2022-10-19T09:55:00.250Z,7.35
2022-10-19T09:57:26.836Z,8.80
2022-10-19T09:59:53.441Z,7.28
2022-10-19T10:02:21.143Z,10.48
2022-10-19T10:04:55.382Z,9.43
2022-10-19T10:07:25.368Z,8.75
2022-10-19T10:09:52.665Z,7.13
2022-10-19T10:12:19.204Z,7.57
2022-10-19T10:14:45.815Z,8.48
2022-10-19T10:17:23.392Z,7.75
2022-10-19T10:22:51.484Z,7.80
2022-10-19T10:25:18.679Z,8.10
2022-10-19T10:27:54.010Z,7.40
2022-10-19T10:30:20.501Z,6.82
2022-10-19T10:32:51.158Z,6.63
2022-10-19T10:35:37.957Z,5.00
2022-10-19T10:38:14.653Z,5.40
2022-10-19T10:40:41.770Z,5.35
2022-10-19T10:43:12.909Z,5.65
2022-10-19T10:45:39.381Z,5.82
2022-10-19T10:48:12.029Z,5.60
2022-10-19T10:50:38.505Z,5.55
2022-10-19T10:53:06.310Z,5.78
2022-10-19T10:55:33.831Z,6.03
2022-10-19T10:58:13.207Z,6.10
2022-10-19T11:00:40.805Z,6.75
2022-10-19T11:03:25.092Z,6.07
2022-10-19T11:05:56.247Z,6.43
2022-10-19T11:08:25.781Z,5.43
2022-10-19T11:10:57.302Z,8.30
2022-10-19T11:13:35.884Z,7.32
2022-10-19T11:16:13.525Z,7.68
2022-10-19T11:18:42.867Z,6.07
2022-10-19T11:21:13.138Z,6.75
2022-10-19T11:23:42.682Z,7.00
2022-10-19T11:26:27.584Z,7.30
2022-10-19T11:29:06.012Z,8.57
2022-10-19T11:31:32.475Z,7.75
2022-10-19T11:34:18.641Z,7.07
2022-10-19T11:37:04.002Z,11.57
2022-10-19T11:39:39.347Z,7.65
2022-10-19T11:42:15.035Z,8.20
2022-10-19T11:44:48.030Z,9.60
2022-10-19T11:47:14.535Z,7.95
2022-10-19T11:49:50.068Z,9.82
2022-10-19T11:52:24.134Z,8.85
2022-10-19T11:54:53.519Z,7.57
2022-10-19T11:57:23.675Z,6.80
2022-10-19T12:00:03.981Z,7.20
2022-10-19T12:02:40.716Z,8.85
2022-10-19T12:05:11.478Z,7.03
2022-10-19T12:07:56.265Z,7.30
2022-10-19T12:10:31.549Z,8.15
2022-10-19T12:13:10.676Z,8.70
2022-10-19T12:15:45.866Z,7.72
2022-10-19T12:18:30.942Z,6.95
2022-10-19T12:20:59.173Z,7.82
2022-10-19T12:23:38.855Z,7.00
2022-10-19T12:26:10.196Z,5.97
2022-10-19T12:28:41.856Z,5.78
2022-10-19T12:31:09.513Z,7.97
2022-10-19T12:33:35.943Z,5.68
2022-10-19T12:36:16.344Z,7.03
2022-10-19T12:39:00.955Z,6.07
2022-10-19T12:41:43.255Z,6.45
2022-10-19T12:44:30.002Z,8.13
2022-10-19T12:47:01.015Z,6.45
2022-10-19T12:49:30.413Z,7.00
2022-10-19T12:52:00.817Z,5.95
2022-10-19T12:54:28.859Z,7.53
2022-10-19T12:56:56.463Z,8.85
2022-10-19T12:59:24.630Z,6.78
2022-10-19T13:04:22.371Z,5.97
2022-10-19T13:07:00.183Z,7.57
2022-10-19T13:09:32.767Z,6.22
2022-10-19T13:12:22.186Z,6.88
2022-10-19T13:14:56.255Z,5.47
2022-10-19T13:17:36.523Z,8.88
2022-10-19T13:20:15.234Z,5.47
2022-10-19T13:22:42.696Z,5.97
2022-10-19T13:25:21.257Z,6.15
2022-10-19T13:27:48.485Z,7.93
2022-10-19T13:30:33.691Z,5.37
2022-10-19T13:33:00.239Z,5.35
2022-10-19T13:35:30.637Z,6.68
2022-10-19T13:38:09.401Z,11.15
2022-10-19T13:40:41.599Z,8.25
2022-10-19T13:43:18.142Z,5.68
2022-10-19T13:45:53.306Z,5.85
2022-10-19T13:48:24.367Z,6.68
2022-10-19T13:51:12.793Z,5.60
2022-10-19T13:53:55.271Z,7.40
2022-10-19T13:59:02.299Z,6.70
2022-10-19T14:01:39.387Z,7.03
2022-10-19T14:04:21.656Z,7.20
2022-10-19T14:07:17.763Z,8.38
2022-10-19T14:09:44.177Z,7.07
2022-10-19T14:12:17.003Z,5.72
2022-10-19T14:14:44.474Z,7.47
2022-10-19T14:17:14.893Z,6.15
2022-10-19T14:19:42.955Z,6.28
2022-10-19T14:22:24.829Z,5.55
2022-10-19T14:24:51.677Z,9.05
2022-10-19T14:27:24.552Z,8.80
2022-10-19T14:29:52.681Z,7.10
2022-10-19T14:32:22.228Z,8.05
2022-10-19T14:34:49.419Z,8.98
2022-10-19T14:37:18.251Z,7.88
2022-10-19T14:39:57.990Z,6.28
2022-10-19T14:42:24.490Z,5.60
2022-10-19T14:44:50.920Z,6.40
2022-10-19T14:47:22.341Z,6.93
2022-10-19T14:49:49.330Z,7.28
2022-10-19T14:52:41.872Z,7.80
2022-10-19T14:55:12.761Z,6.43
2022-10-19T14:57:43.369Z,5.68
2022-10-19T15:00:21.187Z,6.10
2022-10-19T15:02:53.547Z,5.93
2022-10-19T15:05:21.128Z,6.10
2022-10-19T15:07:47.966Z,7.43
2022-10-19T15:10:20.443Z,5.63
2022-10-19T15:12:51.001Z,6.43
2022-10-19T15:17:54.444Z,8.77
2022-10-19T15:20:23.719Z,5.70
2022-10-19T15:22:50.251Z,5.57
2022-10-19T15:25:28.565Z,5.15
2022-10-19T15:27:55.345Z,10.50
2022-10-19T15:30:26.489Z,6.68
2022-10-19T15:33:02.068Z,6.07
2022-10-19T15:35:32.957Z,9.13
2022-10-19T15:38:04.005Z,7.40
2022-10-19T15:40:33.417Z,7.63
2022-10-19T15:42:59.878Z,6.05
2022-10-19T15:45:36.754Z,8.35
2022-10-19T15:48:21.688Z,7.22
2022-10-19T15:50:49.019Z,6.10
2022-10-19T15:53:15.948Z,5.87
2022-10-19T15:55:42.460Z,9.98
2022-10-19T15:58:12.308Z,5.15
2022-10-19T16:00:39.133Z,6.47
2022-10-19T16:03:05.612Z,7.13
2022-10-19T16:05:32.107Z,8.10
2022-10-19T16:07:58.652Z,6.53
2022-10-19T16:10:28.227Z,6.07
2022-10-19T16:13:11.567Z,9.38
2022-10-19T16:15:38.087Z,8.93
2022-10-19T16:18:06.613Z,8.95
2022-10-19T16:20:33.086Z,6.80
2022-10-19T16:22:59.608Z,8.45
2022-10-19T16:25:26.145Z,6.97
2022-10-19T16:27:52.722Z,7.72
2022-10-19T16:30:19.258Z,8.85
2022-10-19T16:32:47.711Z,11.48
2022-10-19T16:35:14.190Z,9.73
2022-10-19T16:37:40.666Z,9.35
2022-10-19T16:40:07.498Z,10.23
2022-10-19T16:42:34.927Z,10.98
2022-10-19T16:45:01.888Z,9.57
2022-10-19T16:47:28.335Z,9.70
2022-10-19T16:50:00.008Z,9.93
2022-10-19T16:52:27.190Z,12.45
2022-10-19T16:54:53.714Z,10.93
2022-10-19T16:57:20.515Z,9.63
2022-10-19T16:59:49.531Z,8.55
2022-10-19T17:02:16.084Z,9.65
2022-10-19T17:04:42.534Z,12.13
2022-10-19T17:07:09.052Z,11.02
2022-10-19T17:09:43.321Z,8.55
2022-10-19T17:12:10.436Z,10.65
2022-10-19T17:14:38.325Z,9.60
2022-10-19T17:17:04.890Z,8.00
2022-10-19T17:19:31.629Z,8.82
2022-10-19T17:21:59.105Z,11.55
2022-10-19T17:24:25.909Z,10.88
2022-10-19T17:26:53.002Z,9.52
2022-10-19T17:29:20.336Z,12.52
2022-10-19T17:31:47.064Z,9.77
2022-10-19T17:34:13.790Z,14.05
2022-10-19T17:36:41.517Z,10.95
2022-10-19T17:39:09.250Z,11.65
2022-10-19T17:41:36.001Z,11.93
2022-10-19T17:44:03.134Z,12.10
2022-10-19T17:46:30.680Z,13.10
2022-10-19T17:48:57.896Z,14.40
2022-10-19T17:51:29.179Z,10.93
2022-10-19T17:53:56.807Z,14.43
2022-10-19T17:56:23.643Z,14.32
2022-10-19T17:58:50.598Z,11.90
2022-10-19T18:01:18.294Z,10.32
2022-10-19T18:03:44.907Z,13.10
2022-10-19T18:06:12.900Z,13.60
2022-10-19T18:08:40.892Z,11.45
2022-10-19T18:11:09.078Z,12.90
2022-10-19T18:16:09.195Z,16.27
2022-10-19T18:18:36.997Z,20.50
2022-10-19T18:21:04.263Z,15.98
2022-10-19T18:23:30.761Z,14.40
2022-10-19T18:26:00.623Z,12.52
2022-10-19T18:28:27.136Z,12.32
2022-10-19T18:30:53.539Z,18.85
2022-10-19T18:33:19.994Z,13.10
2022-10-19T18:35:46.542Z,15.90
2022-10-19T18:38:13.087Z,14.30
2022-10-19T18:40:39.604Z,14.63
2022-10-19T18:43:06.175Z,14.25
2022-10-19T18:45:32.679Z,15.32
2022-10-19T18:47:59.151Z,16.20
2022-10-19T18:50:25.705Z,14.63
2022-10-19T18:52:52.199Z,14.20
2022-10-19T18:55:18.730Z,14.93
2022-10-19T18:57:45.252Z,12.93
2022-10-19T19:00:12.077Z,15.52
2022-10-19T19:02:46.455Z,14.90
2022-10-19T19:05:13.752Z,17.17
2022-10-19T19:07:40.455Z,15.73
2022-10-19T19:10:07.344Z,17.00
2022-10-19T19:12:34.344Z,17.05
2022-10-19T19:15:01.027Z,15.20
2022-10-19T19:17:27.543Z,15.00
2022-10-19T19:19:54.312Z,13.13
2022-10-19T19:22:20.894Z,12.98
2022-10-19T19:24:49.627Z,14.15
2022-10-19T19:27:16.177Z,18.08
2022-10-19T19:29:42.856Z,20.20
2022-10-19T19:32:09.335Z,14.60
2022-10-19T19:34:35.819Z,11.93
2022-10-19T19:37:04.085Z,14.75
2022-10-19T19:39:32.110Z,11.60
2022-10-19T19:41:58.860Z,15.10
2022-10-19T19:44:29.645Z,14.07
2022-10-19T19:46:57.234Z,18.80
2022-10-19T19:49:25.706Z,13.70
2022-10-19T19:51:52.536Z,15.75
2022-10-19T19:54:19.684Z,13.93
2022-10-19T19:56:46.224Z,16.08
2022-10-19T19:59:13.111Z,17.05
2022-10-19T20:01:40.079Z,14.75
2022-10-19T20:04:06.680Z,14.45
2022-10-19T20:06:34.099Z,19.92
2022-10-19T20:09:00.805Z,14.85
2022-10-19T20:11:29.245Z,13.65
2022-10-19T20:13:56.350Z,15.13
2022-10-19T20:16:29.474Z,12.48
2022-10-19T20:19:01.018Z,16.77
2022-10-19T20:21:27.693Z,11.95
2022-10-19T20:23:54.355Z,15.05
2022-10-19T20:26:23.135Z,13.77
2022-10-19T20:28:50.068Z,13.65
2022-10-19T20:31:16.643Z,17.88
2022-10-19T20:33:43.903Z,19.52
2022-10-19T20:36:11.917Z,17.27
2022-10-19T20:38:38.855Z,15.02
2022-10-19T20:41:07.927Z,16.52
